sensor_id;sensor_type;location;lat;lon;timestamp;temperature;humidity
74513;DHT22;62992;52.052;8.550;2023-09-19T00:02:23;15.70;99.90
74513;DHT22;62992;52.052;8.550;2023-09-19T00:05:07;15.60;99.90
74513;DHT22;62992;52.052;8.550;2023-09-19T00:07:53;15.70;99.90
74513;DHT22;62992;52.052;8.550;2023-09-19T00:10:38;15.60;99.90
74513;DHT22;62992;52.052;8.550;2023-09-19T00:13:23;15.70;99.90
74513;DHT22;62992;52.052;8.550;2023-09-19T00:16:09;15.60;99.90
74513;DHT22;62992;52.052;8.550;2023-09-19T00:18:54;15.60;99.90
74513;DHT22;62992;52.052;8.550;2023-09-19T00:21:38;15.60;99.90
74513;DHT22;62992;52.052;8.550;2023-09-19T00:24:24;15.60;99.90
74513;DHT22;62992;52.052;8.550;2023-09-19T00:27:08;15.70;99.90
74513;DHT22;62992;52.052;8.550;2023-09-19T00:29:52;15.70;99.90
74513;DHT22;62992;52.052;8.550;2023-09-19T00:32:37;15.60;99.90
74513;DHT22;62992;52.052;8.550;2023-09-19T00:35:22;15.60;99.90
74513;DHT22;62992;52.052;8.550;2023-09-19T00:38:09;15.60;99.90
74513;DHT22;62992;52.052;8.550;2023-09-19T00:40:54;15.60;99.90
74513;DHT22;62992;52.052;8.550;2023-09-19T00:43:38;15.70;99.90
74513;DHT22;62992;52.052;8.550;2023-09-19T00:46:23;15.70;99.90
74513;DHT22;62992;52.052;8.550;2023-09-19T00:49:09;15.60;99.90
74513;DHT22;62992;52.052;8.550;2023-09-19T00:51:53;15.60;99.90
74513;DHT22;62992;52.052;8.550;2023-09-19T00:54:39;15.60;99.90
74513;DHT22;62992;52.052;8.550;2023-09-19T00:57:23;15.50;99.90
74513;DHT22;62992;52.052;8.550;2023-09-19T01:00:07;15.60;99.90
74513;DHT22;62992;52.052;8.550;2023-09-19T01:02:54;15.50;99.90
74513;DHT22;62992;52.052;8.550;2023-09-19T01:05:39;15.60;99.90
74513;DHT22;62992;52.052;8.550;2023-09-19T01:08:23;15.60;99.90
74513;DHT22;62992;52.052;8.550;2023-09-19T01:11:11;15.60;99.90
74513;DHT22;62992;52.052;8.550;2023-09-19T01:14:20;15.60;99.90
74513;DHT22;62992;52.052;8.550;2023-09-19T01:17:05;15.60;99.90
74513;DHT22;62992;52.052;8.550;2023-09-19T01:26:23;15.40;99.90
74513;DHT22;62992;52.052;8.550;2023-09-19T01:28:52;15.50;99.90
74513;DHT22;62992;52.052;8.550;2023-09-19T01:31:41;15.60;99.90
74513;DHT22;62992;52.052;8.550;2023-09-19T01:34:26;15.60;99.90
74513;DHT22;62992;52.052;8.550;2023-09-19T01:37:10;15.60;99.90
74513;DHT22;62992;52.052;8.550;2023-09-19T01:39:56;15.60;99.90
74513;DHT22;62992;52.052;8.550;2023-09-19T01:42:41;15.60;99.90
74513;DHT22;62992;52.052;8.550;2023-09-19T01:51:20;15.60;99.90
74513;DHT22;62992;52.052;8.550;2023-09-19T01:54:09;15.50;99.90
74513;DHT22;62992;52.052;8.550;2023-09-19T01:57:09;15.40;99.90
74513;DHT22;62992;52.052;8.550;2023-09-19T02:00:02;15.40;99.90
74513;DHT22;62992;52.052;8.550;2023-09-19T02:02:50;15.40;99.90
74513;DHT22;62992;52.052;8.550;2023-09-19T02:05:35;15.40;99.90
74513;DHT22;62992;52.052;8.550;2023-09-19T02:08:20;15.40;99.90
74513;DHT22;62992;52.052;8.550;2023-09-19T02:11:04;15.40;99.90
74513;DHT22;62992;52.052;8.550;2023-09-19T02:13:49;15.40;99.90
74513;DHT22;62992;52.052;8.550;2023-09-19T02:16:38;15.40;99.90
74513;DHT22;62992;52.052;8.550;2023-09-19T02:19:22;15.40;99.90
74513;DHT22;62992;52.052;8.550;2023-09-19T02:22:06;15.50;99.90
74513;DHT22;62992;52.052;8.550;2023-09-19T02:24:51;15.50;99.90
74513;DHT22;62992;52.052;8.550;2023-09-19T02:27:36;15.50;99.90
74513;DHT22;62992;52.052;8.550;2023-09-19T02:30:21;15.50;99.90
74513;DHT22;62992;52.052;8.550;2023-09-19T02:33:06;15.50;99.90
74513;DHT22;62992;52.052;8.550;2023-09-19T02:35:55;15.50;99.90
74513;DHT22;62992;52.052;8.550;2023-09-19T02:38:41;15.40;99.90
74513;DHT22;62992;52.052;8.550;2023-09-19T02:41:25;15.50;99.90
74513;DHT22;62992;52.052;8.550;2023-09-19T02:44:09;15.50;99.90
74513;DHT22;62992;52.052;8.550;2023-09-19T02:46:53;15.40;99.90
74513;DHT22;62992;52.052;8.550;2023-09-19T02:49:38;15.50;99.90
74513;DHT22;62992;52.052;8.550;2023-09-19T02:52:22;15.40;99.90
74513;DHT22;62992;52.052;8.550;2023-09-19T02:55:07;15.40;99.90
74513;DHT22;62992;52.052;8.550;2023-09-19T02:57:53;15.40;99.90
74513;DHT22;62992;52.052;8.550;2023-09-19T03:00:41;15.40;99.90
74513;DHT22;62992;52.052;8.550;2023-09-19T03:03:31;15.40;99.90
74513;DHT22;62992;52.052;8.550;2023-09-19T03:06:15;15.40;99.90
74513;DHT22;62992;52.052;8.550;2023-09-19T03:09:01;15.30;99.90
74513;DHT22;62992;52.052;8.550;2023-09-19T03:11:46;15.40;99.90
74513;DHT22;62992;52.052;8.550;2023-09-19T03:14:31;15.30;99.90
74513;DHT22;62992;52.052;8.550;2023-09-19T03:17:19;15.30;99.90
74513;DHT22;62992;52.052;8.550;2023-09-19T03:20:03;15.20;99.90
74513;DHT22;62992;52.052;8.550;2023-09-19T03:22:52;15.20;99.90
74513;DHT22;62992;52.052;8.550;2023-09-19T03:25:36;15.20;99.90
74513;DHT22;62992;52.052;8.550;2023-09-19T03:28:20;15.20;99.90
74513;DHT22;62992;52.052;8.550;2023-09-19T03:31:05;15.20;99.90
74513;DHT22;62992;52.052;8.550;2023-09-19T03:33:50;15.10;99.90
74513;DHT22;62992;52.052;8.550;2023-09-19T03:36:34;15.00;99.90
74513;DHT22;62992;52.052;8.550;2023-09-19T03:39:19;15.10;99.90
74513;DHT22;62992;52.052;8.550;2023-09-19T03:42:03;15.10;99.90
74513;DHT22;62992;52.052;8.550;2023-09-19T03:44:47;15.10;99.90
74513;DHT22;62992;52.052;8.550;2023-09-19T03:47:32;15.00;99.90
74513;DHT22;62992;52.052;8.550;2023-09-19T03:50:16;15.00;99.90
74513;DHT22;62992;52.052;8.550;2023-09-19T03:53:01;15.00;99.90
74513;DHT22;62992;52.052;8.550;2023-09-19T03:55:46;14.90;99.90
74513;DHT22;62992;52.052;8.550;2023-09-19T03:58:30;14.90;99.90
74513;DHT22;62992;52.052;8.550;2023-09-19T04:01:14;14.90;99.90
74513;DHT22;62992;52.052;8.550;2023-09-19T04:04:00;14.90;99.90
74513;DHT22;62992;52.052;8.550;2023-09-19T04:06:51;14.90;99.90
74513;DHT22;62992;52.052;8.550;2023-09-19T04:09:36;14.90;99.90
74513;DHT22;62992;52.052;8.550;2023-09-19T04:12:20;14.70;99.90
74513;DHT22;62992;52.052;8.550;2023-09-19T04:15:04;14.70;99.90
74513;DHT22;62992;52.052;8.550;2023-09-19T04:17:49;14.60;99.90
74513;DHT22;62992;52.052;8.550;2023-09-19T04:20:33;14.60;99.90
74513;DHT22;62992;52.052;8.550;2023-09-19T04:23:18;14.50;99.90
74513;DHT22;62992;52.052;8.550;2023-09-19T04:26:05;14.50;99.90
74513;DHT22;62992;52.052;8.550;2023-09-19T04:28:49;14.50;99.90
74513;DHT22;62992;52.052;8.550;2023-09-19T04:31:33;14.40;99.90
74513;DHT22;62992;52.052;8.550;2023-09-19T04:34:17;14.40;99.90
74513;DHT22;62992;52.052;8.550;2023-09-19T04:37:02;14.40;99.90
74513;DHT22;62992;52.052;8.550;2023-09-19T04:39:47;14.40;99.90
74513;DHT22;62992;52.052;8.550;2023-09-19T04:42:31;14.40;99.90
74513;DHT22;62992;52.052;8.550;2023-09-19T04:45:16;14.30;99.90
74513;DHT22;62992;52.052;8.550;2023-09-19T04:48:00;14.30;99.90
74513;DHT22;62992;52.052;8.550;2023-09-19T04:50:44;14.20;99.90
74513;DHT22;62992;52.052;8.550;2023-09-19T04:53:28;14.20;99.90
74513;DHT22;62992;52.052;8.550;2023-09-19T04:56:13;14.30;99.90
74513;DHT22;62992;52.052;8.550;2023-09-19T04:58:57;14.30;99.90
74513;DHT22;62992;52.052;8.550;2023-09-19T05:01:42;14.30;99.90
74513;DHT22;62992;52.052;8.550;2023-09-19T05:04:26;14.30;99.90
74513;DHT22;62992;52.052;8.550;2023-09-19T05:07:10;14.30;99.90
74513;DHT22;62992;52.052;8.550;2023-09-19T05:09:55;14.30;99.90
74513;DHT22;62992;52.052;8.550;2023-09-19T05:12:39;14.20;99.90
74513;DHT22;62992;52.052;8.550;2023-09-19T05:15:24;14.10;99.90
74513;DHT22;62992;52.052;8.550;2023-09-19T05:18:08;14.10;99.90
74513;DHT22;62992;52.052;8.550;2023-09-19T05:20:52;14.10;99.90
74513;DHT22;62992;52.052;8.550;2023-09-19T05:23:36;14.00;99.90
74513;DHT22;62992;52.052;8.550;2023-09-19T05:26:21;14.00;99.90
74513;DHT22;62992;52.052;8.550;2023-09-19T05:29:05;14.00;99.90
74513;DHT22;62992;52.052;8.550;2023-09-19T05:31:51;14.00;99.90
74513;DHT22;62992;52.052;8.550;2023-09-19T05:34:38;14.00;99.90
74513;DHT22;62992;52.052;8.550;2023-09-19T05:37:22;14.00;99.90
74513;DHT22;62992;52.052;8.550;2023-09-19T05:40:07;14.00;99.90
74513;DHT22;62992;52.052;8.550;2023-09-19T05:42:56;13.90;99.90
74513;DHT22;62992;52.052;8.550;2023-09-19T05:45:40;14.00;99.90
74513;DHT22;62992;52.052;8.550;2023-09-19T05:48:24;14.00;99.90
74513;DHT22;62992;52.052;8.550;2023-09-19T05:51:09;14.00;99.90
74513;DHT22;62992;52.052;8.550;2023-09-19T05:53:53;14.00;99.90
74513;DHT22;62992;52.052;8.550;2023-09-19T05:56:38;14.00;99.90
74513;DHT22;62992;52.052;8.550;2023-09-19T05:59:22;14.00;99.90
74513;DHT22;62992;52.052;8.550;2023-09-19T06:02:06;14.10;99.90
74513;DHT22;62992;52.052;8.550;2023-09-19T06:04:51;14.00;99.90
74513;DHT22;62992;52.052;8.550;2023-09-19T06:07:38;14.20;99.90
74513;DHT22;62992;52.052;8.550;2023-09-19T06:10:22;14.20;99.90
74513;DHT22;62992;52.052;8.550;2023-09-19T06:13:07;14.30;99.90
74513;DHT22;62992;52.052;8.550;2023-09-19T06:15:54;14.30;99.90
74513;DHT22;62992;52.052;8.550;2023-09-19T06:18:40;14.30;99.90
74513;DHT22;62992;52.052;8.550;2023-09-19T06:21:24;14.30;99.90
74513;DHT22;62992;52.052;8.550;2023-09-19T06:24:08;14.40;99.90
74513;DHT22;62992;52.052;8.550;2023-09-19T06:26:52;14.40;99.90
74513;DHT22;62992;52.052;8.550;2023-09-19T06:29:36;14.40;99.90
74513;DHT22;62992;52.052;8.550;2023-09-19T06:32:26;14.60;99.90
74513;DHT22;62992;52.052;8.550;2023-09-19T06:35:11;14.60;99.90
74513;DHT22;62992;52.052;8.550;2023-09-19T06:37:55;14.70;99.90
74513;DHT22;62992;52.052;8.550;2023-09-19T06:40:41;14.80;99.90
74513;DHT22;62992;52.052;8.550;2023-09-19T06:43:26;15.00;99.90
74513;DHT22;62992;52.052;8.550;2023-09-19T06:46:12;15.20;99.90
74513;DHT22;62992;52.052;8.550;2023-09-19T06:48:56;15.40;99.90
74513;DHT22;62992;52.052;8.550;2023-09-19T06:51:41;15.40;99.90
74513;DHT22;62992;52.052;8.550;2023-09-19T06:54:25;15.60;99.90
74513;DHT22;62992;52.052;8.550;2023-09-19T06:57:15;15.60;99.90
74513;DHT22;62992;52.052;8.550;2023-09-19T06:59:59;16.10;99.90
74513;DHT22;62992;52.052;8.550;2023-09-19T07:02:54;16.00;99.90
74513;DHT22;62992;52.052;8.550;2023-09-19T07:05:38;15.50;99.90
74513;DHT22;62992;52.052;8.550;2023-09-19T07:08:23;15.50;99.90
74513;DHT22;62992;52.052;8.550;2023-09-19T07:11:07;15.50;99.90
74513;DHT22;62992;52.052;8.550;2023-09-19T07:13:51;15.50;99.90
74513;DHT22;62992;52.052;8.550;2023-09-19T07:16:35;15.40;99.90
74513;DHT22;62992;52.052;8.550;2023-09-19T07:19:20;15.50;99.90
74513;DHT22;62992;52.052;8.550;2023-09-19T07:22:05;15.60;99.90
74513;DHT22;62992;52.052;8.550;2023-09-19T07:24:51;15.60;99.90
74513;DHT22;62992;52.052;8.550;2023-09-19T07:27:35;16.00;99.90
74513;DHT22;62992;52.052;8.550;2023-09-19T07:30:20;16.90;99.90
74513;DHT22;62992;52.052;8.550;2023-09-19T07:33:04;17.20;99.90
74513;DHT22;62992;52.052;8.550;2023-09-19T07:35:49;17.50;99.90
74513;DHT22;62992;52.052;8.550;2023-09-19T07:38:33;18.00;99.90
74513;DHT22;62992;52.052;8.550;2023-09-19T07:41:19;18.80;99.90
74513;DHT22;62992;52.052;8.550;2023-09-19T07:44:03;19.30;99.90
74513;DHT22;62992;52.052;8.550;2023-09-19T07:46:47;22.00;99.90
74513;DHT22;62992;52.052;8.550;2023-09-19T07:49:34;22.20;99.90
74513;DHT22;62992;52.052;8.550;2023-09-19T07:52:18;22.30;99.90
74513;DHT22;62992;52.052;8.550;2023-09-19T07:55:03;20.80;99.90
74513;DHT22;62992;52.052;8.550;2023-09-19T07:57:52;19.90;99.90
74513;DHT22;62992;52.052;8.550;2023-09-19T08:00:36;18.90;99.90
74513;DHT22;62992;52.052;8.550;2023-09-19T08:03:20;18.50;99.90
74513;DHT22;62992;52.052;8.550;2023-09-19T08:06:05;18.20;99.90
74513;DHT22;62992;52.052;8.550;2023-09-19T08:08:52;17.90;99.90
74513;DHT22;62992;52.052;8.550;2023-09-19T08:11:37;18.10;99.90
74513;DHT22;62992;52.052;8.550;2023-09-19T08:14:23;17.60;99.90
74513;DHT22;62992;52.052;8.550;2023-09-19T08:17:08;17.40;99.90
74513;DHT22;62992;52.052;8.550;2023-09-19T08:19:53;17.10;99.90
74513;DHT22;62992;52.052;8.550;2023-09-19T08:22:37;17.20;99.90
74513;DHT22;62992;52.052;8.550;2023-09-19T08:25:21;16.90;99.90
74513;DHT22;62992;52.052;8.550;2023-09-19T08:28:06;17.20;99.90
74513;DHT22;62992;52.052;8.550;2023-09-19T08:30:52;17.70;99.90
74513;DHT22;62992;52.052;8.550;2023-09-19T08:33:37;17.50;99.90
74513;DHT22;62992;52.052;8.550;2023-09-19T08:36:21;17.80;99.90
74513;DHT22;62992;52.052;8.550;2023-09-19T08:39:06;18.10;99.90
74513;DHT22;62992;52.052;8.550;2023-09-19T08:41:56;18.10;99.90
74513;DHT22;62992;52.052;8.550;2023-09-19T08:44:41;17.70;99.90
74513;DHT22;62992;52.052;8.550;2023-09-19T08:47:37;17.70;99.90
74513;DHT22;62992;52.052;8.550;2023-09-19T08:50:27;17.70;99.90
74513;DHT22;62992;52.052;8.550;2023-09-19T08:53:24;17.70;99.90
74513;DHT22;62992;52.052;8.550;2023-09-19T08:56:11;17.70;99.90
74513;DHT22;62992;52.052;8.550;2023-09-19T08:59:00;17.80;99.90
74513;DHT22;62992;52.052;8.550;2023-09-19T09:01:46;17.70;99.90
74513;DHT22;62992;52.052;8.550;2023-09-19T09:04:30;17.50;99.90
74513;DHT22;62992;52.052;8.550;2023-09-19T09:07:14;17.70;99.90
74513;DHT22;62992;52.052;8.550;2023-09-19T09:10:02;17.70;99.90
74513;DHT22;62992;52.052;8.550;2023-09-19T09:12:46;17.70;99.90
74513;DHT22;62992;52.052;8.550;2023-09-19T09:15:30;17.60;99.90
74513;DHT22;62992;52.052;8.550;2023-09-19T09:18:16;17.60;99.90
74513;DHT22;62992;52.052;8.550;2023-09-19T09:21:01;17.40;99.90
74513;DHT22;62992;52.052;8.550;2023-09-19T09:23:48;17.40;99.90
74513;DHT22;62992;52.052;8.550;2023-09-19T09:29:40;18.00;99.90
74513;DHT22;62992;52.052;8.550;2023-09-19T09:32:28;18.00;99.90
74513;DHT22;62992;52.052;8.550;2023-09-19T09:35:13;18.10;99.90
74513;DHT22;62992;52.052;8.550;2023-09-19T09:37:59;18.00;99.90
74513;DHT22;62992;52.052;8.550;2023-09-19T09:40:47;18.00;99.90
74513;DHT22;62992;52.052;8.550;2023-09-19T09:43:36;18.20;99.90
74513;DHT22;62992;52.052;8.550;2023-09-19T09:46:22;18.50;99.90
74513;DHT22;62992;52.052;8.550;2023-09-19T09:49:06;18.50;99.90
74513;DHT22;62992;52.052;8.550;2023-09-19T09:52:11;19.40;99.90
74513;DHT22;62992;52.052;8.550;2023-09-19T09:55:02;18.60;99.90
74513;DHT22;62992;52.052;8.550;2023-09-19T09:57:52;19.10;99.90
74513;DHT22;62992;52.052;8.550;2023-09-19T10:00:52;19.40;99.90
74513;DHT22;62992;52.052;8.550;2023-09-19T10:03:39;19.60;99.90
74513;DHT22;62992;52.052;8.550;2023-09-19T10:06:24;20.10;99.90
74513;DHT22;62992;52.052;8.550;2023-09-19T10:09:12;20.10;99.90
74513;DHT22;62992;52.052;8.550;2023-09-19T10:12:05;19.40;99.90
74513;DHT22;62992;52.052;8.550;2023-09-19T10:14:49;19.20;99.90
74513;DHT22;62992;52.052;8.550;2023-09-19T10:17:35;19.30;99.90
74513;DHT22;62992;52.052;8.550;2023-09-19T10:20:20;19.10;99.90
74513;DHT22;62992;52.052;8.550;2023-09-19T10:23:22;19.00;99.90
74513;DHT22;62992;52.052;8.550;2023-09-19T10:26:07;18.90;99.90
74513;DHT22;62992;52.052;8.550;2023-09-19T10:28:53;19.20;99.90
74513;DHT22;62992;52.052;8.550;2023-09-19T10:31:39;19.50;99.90
74513;DHT22;62992;52.052;8.550;2023-09-19T10:34:25;19.20;99.90
74513;DHT22;62992;52.052;8.550;2023-09-19T10:37:11;19.30;99.90
74513;DHT22;62992;52.052;8.550;2023-09-19T10:39:56;18.90;99.90
74513;DHT22;62992;52.052;8.550;2023-09-19T10:42:40;19.10;99.90
74513;DHT22;62992;52.052;8.550;2023-09-19T10:45:26;19.00;99.90
74513;DHT22;62992;52.052;8.550;2023-09-19T10:48:10;18.90;99.90
74513;DHT22;62992;52.052;8.550;2023-09-19T10:54:15;18.30;99.90
74513;DHT22;62992;52.052;8.550;2023-09-19T10:57:01;18.30;99.90
74513;DHT22;62992;52.052;8.550;2023-09-19T11:00:07;18.10;99.90
74513;DHT22;62992;52.052;8.550;2023-09-19T11:03:20;18.30;99.90
74513;DHT22;62992;52.052;8.550;2023-09-19T11:06:09;18.70;99.90
74513;DHT22;62992;52.052;8.550;2023-09-19T11:11:56;19.00;99.90
74513;DHT22;62992;52.052;8.550;2023-09-19T11:14:41;18.70;99.90
74513;DHT22;62992;52.052;8.550;2023-09-19T11:17:32;19.30;99.90
74513;DHT22;62992;52.052;8.550;2023-09-19T11:20:19;19.20;99.90
74513;DHT22;62992;52.052;8.550;2023-09-19T11:25:56;19.60;99.90
74513;DHT22;62992;52.052;8.550;2023-09-19T11:28:41;19.80;99.90
74513;DHT22;62992;52.052;8.550;2023-09-19T11:31:41;20.10;99.90
74513;DHT22;62992;52.052;8.550;2023-09-19T11:40:08;20.60;99.90
74513;DHT22;62992;52.052;8.550;2023-09-19T11:43:06;20.40;99.90
74513;DHT22;62992;52.052;8.550;2023-09-19T11:46:07;20.30;99.90
74513;DHT22;62992;52.052;8.550;2023-09-19T11:48:51;20.40;99.90
74513;DHT22;62992;52.052;8.550;2023-09-19T11:51:42;20.50;99.90
74513;DHT22;62992;52.052;8.550;2023-09-19T11:54:28;20.70;99.90
74513;DHT22;62992;52.052;8.550;2023-09-19T11:57:19;20.30;99.90
74513;DHT22;62992;52.052;8.550;2023-09-19T12:00:04;20.00;99.90
74513;DHT22;62992;52.052;8.550;2023-09-19T12:02:48;19.70;99.90
74513;DHT22;62992;52.052;8.550;2023-09-19T12:05:35;19.60;99.90
74513;DHT22;62992;52.052;8.550;2023-09-19T12:08:20;19.90;99.90
74513;DHT22;62992;52.052;8.550;2023-09-19T12:11:05;19.90;99.90
74513;DHT22;62992;52.052;8.550;2023-09-19T12:13:52;19.60;99.90
74513;DHT22;62992;52.052;8.550;2023-09-19T12:16:36;19.80;99.90
74513;DHT22;62992;52.052;8.550;2023-09-19T12:19:22;19.60;99.90
74513;DHT22;62992;52.052;8.550;2023-09-19T12:22:07;19.50;99.90
74513;DHT22;62992;52.052;8.550;2023-09-19T12:24:53;19.50;99.90
74513;DHT22;62992;52.052;8.550;2023-09-19T12:27:45;19.50;99.90
74513;DHT22;62992;52.052;8.550;2023-09-19T12:30:30;19.60;99.90
74513;DHT22;62992;52.052;8.550;2023-09-19T12:33:18;19.80;99.90
74513;DHT22;62992;52.052;8.550;2023-09-19T12:36:20;20.00;99.90
74513;DHT22;62992;52.052;8.550;2023-09-19T12:39:09;20.10;99.90
74513;DHT22;62992;52.052;8.550;2023-09-19T12:41:53;20.10;99.90
74513;DHT22;62992;52.052;8.550;2023-09-19T12:44:38;20.30;99.90
74513;DHT22;62992;52.052;8.550;2023-09-19T12:47:25;20.30;99.90
74513;DHT22;62992;52.052;8.550;2023-09-19T12:50:10;20.20;99.90
74513;DHT22;62992;52.052;8.550;2023-09-19T12:52:57;20.20;99.90
74513;DHT22;62992;52.052;8.550;2023-09-19T12:55:44;20.20;99.90
74513;DHT22;62992;52.052;8.550;2023-09-19T12:58:28;20.20;99.90
74513;DHT22;62992;52.052;8.550;2023-09-19T13:01:14;20.00;99.90
74513;DHT22;62992;52.052;8.550;2023-09-19T13:04:18;20.10;99.90
74513;DHT22;62992;52.052;8.550;2023-09-19T13:07:02;20.10;99.90
74513;DHT22;62992;52.052;8.550;2023-09-19T13:10:04;20.30;99.90
74513;DHT22;62992;52.052;8.550;2023-09-19T13:12:49;20.20;99.90
74513;DHT22;62992;52.052;8.550;2023-09-19T13:15:33;20.10;99.90
74513;DHT22;62992;52.052;8.550;2023-09-19T13:18:42;20.00;99.90
74513;DHT22;62992;52.052;8.550;2023-09-19T13:24:19;19.90;99.90
74513;DHT22;62992;52.052;8.550;2023-09-19T13:27:04;19.80;99.90
74513;DHT22;62992;52.052;8.550;2023-09-19T13:29:50;19.90;99.90
74513;DHT22;62992;52.052;8.550;2023-09-19T13:32:34;20.00;99.90
74513;DHT22;62992;52.052;8.550;2023-09-19T13:35:18;20.20;99.90
74513;DHT22;62992;52.052;8.550;2023-09-19T13:38:02;20.10;99.90
74513;DHT22;62992;52.052;8.550;2023-09-19T13:40:47;20.10;99.90
74513;DHT22;62992;52.052;8.550;2023-09-19T13:43:31;20.00;99.90
74513;DHT22;62992;52.052;8.550;2023-09-19T13:46:15;19.90;99.90
74513;DHT22;62992;52.052;8.550;2023-09-19T13:49:00;19.70;99.90
74513;DHT22;62992;52.052;8.550;2023-09-19T13:51:47;19.60;99.90
74513;DHT22;62992;52.052;8.550;2023-09-19T13:54:31;19.80;99.90
74513;DHT22;62992;52.052;8.550;2023-09-19T13:57:16;19.90;99.90
74513;DHT22;62992;52.052;8.550;2023-09-19T14:00:00;20.10;99.90
74513;DHT22;62992;52.052;8.550;2023-09-19T14:02:44;20.00;99.90
74513;DHT22;62992;52.052;8.550;2023-09-19T14:05:29;19.80;99.90
74513;DHT22;62992;52.052;8.550;2023-09-19T14:08:13;19.80;99.90
74513;DHT22;62992;52.052;8.550;2023-09-19T14:10:57;19.80;99.90
74513;DHT22;62992;52.052;8.550;2023-09-19T14:13:42;19.90;99.90
74513;DHT22;62992;52.052;8.550;2023-09-19T14:16:30;20.10;99.90
74513;DHT22;62992;52.052;8.550;2023-09-19T14:19:15;20.20;99.90
74513;DHT22;62992;52.052;8.550;2023-09-19T14:22:00;20.30;99.90
74513;DHT22;62992;52.052;8.550;2023-09-19T14:24:51;20.30;99.90
74513;DHT22;62992;52.052;8.550;2023-09-19T14:27:36;20.10;99.90
74513;DHT22;62992;52.052;8.550;2023-09-19T14:30:20;20.10;99.90
74513;DHT22;62992;52.052;8.550;2023-09-19T14:33:05;20.10;99.90
74513;DHT22;62992;52.052;8.550;2023-09-19T14:35:50;20.00;99.90
74513;DHT22;62992;52.052;8.550;2023-09-19T14:38:35;20.10;99.90
74513;DHT22;62992;52.052;8.550;2023-09-19T14:41:19;20.10;99.90
74513;DHT22;62992;52.052;8.550;2023-09-19T14:44:04;19.90;99.90
74513;DHT22;62992;52.052;8.550;2023-09-19T14:46:49;19.70;99.90
74513;DHT22;62992;52.052;8.550;2023-09-19T14:49:33;19.80;99.90
74513;DHT22;62992;52.052;8.550;2023-09-19T14:52:18;19.80;99.90
74513;DHT22;62992;52.052;8.550;2023-09-19T14:55:02;19.80;99.90
74513;DHT22;62992;52.052;8.550;2023-09-19T14:57:49;19.70;99.90
74513;DHT22;62992;52.052;8.550;2023-09-19T15:00:34;19.70;99.90
74513;DHT22;62992;52.052;8.550;2023-09-19T15:03:18;19.70;99.90
74513;DHT22;62992;52.052;8.550;2023-09-19T15:06:03;19.60;99.90
74513;DHT22;62992;52.052;8.550;2023-09-19T15:08:52;19.50;99.90
74513;DHT22;62992;52.052;8.550;2023-09-19T15:11:36;19.50;99.90
74513;DHT22;62992;52.052;8.550;2023-09-19T15:14:20;19.40;99.90
74513;DHT22;62992;52.052;8.550;2023-09-19T15:17:05;19.40;99.90
74513;DHT22;62992;52.052;8.550;2023-09-19T15:19:49;19.30;99.90
74513;DHT22;62992;52.052;8.550;2023-09-19T15:22:33;19.30;99.90
74513;DHT22;62992;52.052;8.550;2023-09-19T15:25:18;19.30;99.90
74513;DHT22;62992;52.052;8.550;2023-09-19T15:28:03;19.20;99.90
74513;DHT22;62992;52.052;8.550;2023-09-19T15:30:57;19.30;99.90
74513;DHT22;62992;52.052;8.550;2023-09-19T15:33:41;19.30;99.90
74513;DHT22;62992;52.052;8.550;2023-09-19T15:36:25;19.20;99.90
74513;DHT22;62992;52.052;8.550;2023-09-19T15:39:09;19.20;99.90
74513;DHT22;62992;52.052;8.550;2023-09-19T15:41:59;19.20;99.90
74513;DHT22;62992;52.052;8.550;2023-09-19T15:44:43;19.20;99.90
74513;DHT22;62992;52.052;8.550;2023-09-19T15:47:28;19.20;99.90
74513;DHT22;62992;52.052;8.550;2023-09-19T15:50:13;19.20;99.90
74513;DHT22;62992;52.052;8.550;2023-09-19T15:52:59;19.20;99.90
74513;DHT22;62992;52.052;8.550;2023-09-19T15:55:43;19.20;99.90
74513;DHT22;62992;52.052;8.550;2023-09-19T15:58:27;19.20;99.90
74513;DHT22;62992;52.052;8.550;2023-09-19T16:01:12;19.10;99.90
74513;DHT22;62992;52.052;8.550;2023-09-19T16:03:56;18.90;99.90
74513;DHT22;62992;52.052;8.550;2023-09-19T16:06:41;18.90;99.90
74513;DHT22;62992;52.052;8.550;2023-09-19T16:09:25;18.80;99.90
74513;DHT22;62992;52.052;8.550;2023-09-19T16:12:09;18.80;99.90
74513;DHT22;62992;52.052;8.550;2023-09-19T16:14:55;18.80;99.90
74513;DHT22;62992;52.052;8.550;2023-09-19T16:17:39;18.80;99.90
74513;DHT22;62992;52.052;8.550;2023-09-19T16:20:23;18.80;99.90
74513;DHT22;62992;52.052;8.550;2023-09-19T16:23:08;18.80;99.90
74513;DHT22;62992;52.052;8.550;2023-09-19T16:26:08;18.70;99.90
74513;DHT22;62992;52.052;8.550;2023-09-19T16:28:54;18.60;99.90
74513;DHT22;62992;52.052;8.550;2023-09-19T16:31:39;18.60;99.90
74513;DHT22;62992;52.052;8.550;2023-09-19T16:34:25;18.50;99.90
74513;DHT22;62992;52.052;8.550;2023-09-19T16:37:09;18.40;99.90
74513;DHT22;62992;52.052;8.550;2023-09-19T16:39:53;18.40;99.90
74513;DHT22;62992;52.052;8.550;2023-09-19T16:42:37;18.40;99.90
74513;DHT22;62992;52.052;8.550;2023-09-19T16:45:22;18.40;99.90
74513;DHT22;62992;52.052;8.550;2023-09-19T16:48:06;18.30;99.90
74513;DHT22;62992;52.052;8.550;2023-09-19T16:50:51;18.30;99.90
74513;DHT22;62992;52.052;8.550;2023-09-19T16:53:35;18.30;99.90
74513;DHT22;62992;52.052;8.550;2023-09-19T16:56:20;18.30;99.90
74513;DHT22;62992;52.052;8.550;2023-09-19T16:59:04;18.20;99.90
74513;DHT22;62992;52.052;8.550;2023-09-19T17:01:49;18.20;99.90
74513;DHT22;62992;52.052;8.550;2023-09-19T17:04:33;18.30;99.90
74513;DHT22;62992;52.052;8.550;2023-09-19T17:07:17;18.30;99.90
74513;DHT22;62992;52.052;8.550;2023-09-19T17:10:01;18.30;99.90
74513;DHT22;62992;52.052;8.550;2023-09-19T17:12:46;18.30;99.90
74513;DHT22;62992;52.052;8.550;2023-09-19T17:15:30;18.20;99.90
74513;DHT22;62992;52.052;8.550;2023-09-19T17:18:15;18.20;99.90
74513;DHT22;62992;52.052;8.550;2023-09-19T17:21:00;18.10;99.90
74513;DHT22;62992;52.052;8.550;2023-09-19T17:23:44;18.10;99.90
74513;DHT22;62992;52.052;8.550;2023-09-19T17:26:28;18.20;99.90
74513;DHT22;62992;52.052;8.550;2023-09-19T17:29:12;18.20;99.90
74513;DHT22;62992;52.052;8.550;2023-09-19T17:31:56;18.20;99.90
74513;DHT22;62992;52.052;8.550;2023-09-19T17:34:41;18.20;99.90
74513;DHT22;62992;52.052;8.550;2023-09-19T17:37:25;18.20;99.90
74513;DHT22;62992;52.052;8.550;2023-09-19T17:40:10;18.20;99.90
74513;DHT22;62992;52.052;8.550;2023-09-19T17:42:57;18.20;99.90
74513;DHT22;62992;52.052;8.550;2023-09-19T17:45:41;18.10;99.90
74513;DHT22;62992;52.052;8.550;2023-09-19T17:48:25;18.20;99.90
74513;DHT22;62992;52.052;8.550;2023-09-19T17:51:09;18.10;99.90
74513;DHT22;62992;52.052;8.550;2023-09-19T17:53:53;18.10;99.90
74513;DHT22;62992;52.052;8.550;2023-09-19T17:56:46;18.10;99.90
74513;DHT22;62992;52.052;8.550;2023-09-19T17:59:30;18.10;99.90
74513;DHT22;62992;52.052;8.550;2023-09-19T18:02:14;18.10;99.90